logo
Search for airport 
image banner adimage banner adimage banner ad
image banner ad

SQDH - El Desecho

Located in , Colombia

ICAO - , IATA -

Data provided by Airmate  

General information

Coordinates: N5°37'10" W72°3'50"
Elevation is 830 feet MSL.
Magnetic variation is -9° East
View others Airports in Casanare

Operational data

Special qualification required
Current time UTC:
Current local time:
Weather at : - ( 0 km )
METAR: PAMM 281331Z AUTO VRB06KT 4SM -SN BR FEW008 BKN015 OVC021 00/M01 A2930 RMK AO2 UPB04E06SNE04B06 P0000 FZRANO $
View NOTAMs / SUP AIP / TFR affecting this airport [VIEW]
Communications frequencies: [VIEW]

Runways:

RWY identifierQFULength (ft)Width (ft)SurfaceLDA (ft)
0431°352749GRAS
22211°352749GRAS

Airport contact information

Address: Colombia

Satellite view of SQDH